sensor_id;sensor_type;location;lat;lon;timestamp;temperature;humidity
55135;DHT22;41031;44.750;11.308;2023-09-12T00:02:12;22.30;81.40
55135;DHT22;41031;44.750;11.308;2023-09-12T00:04:39;22.30;81.40
55135;DHT22;41031;44.750;11.308;2023-09-12T00:07:07;22.30;81.50
55135;DHT22;41031;44.750;11.308;2023-09-12T00:09:34;22.20;81.40
55135;DHT22;41031;44.750;11.308;2023-09-12T00:12:01;22.30;81.40
55135;DHT22;41031;44.750;11.308;2023-09-12T00:14:29;22.20;81.40
55135;DHT22;41031;44.750;11.308;2023-09-12T00:16:56;22.20;81.50
55135;DHT22;41031;44.750;11.308;2023-09-12T00:19:23;22.20;81.50
55135;DHT22;41031;44.750;11.308;2023-09-12T00:21:50;22.10;81.50
55135;DHT22;41031;44.750;11.308;2023-09-12T00:24:20;22.10;81.60
55135;DHT22;41031;44.750;11.308;2023-09-12T00:26:47;22.10;81.60
55135;DHT22;41031;44.750;11.308;2023-09-12T00:29:13;22.10;81.60
55135;DHT22;41031;44.750;11.308;2023-09-12T00:31:40;22.10;81.60
55135;DHT22;41031;44.750;11.308;2023-09-12T00:34:08;22.10;81.60
55135;DHT22;41031;44.750;11.308;2023-09-12T00:36:35;22.00;81.50
55135;DHT22;41031;44.750;11.308;2023-09-12T00:39:04;22.10;81.60
55135;DHT22;41031;44.750;11.308;2023-09-12T00:41:32;22.10;81.50
55135;DHT22;41031;44.750;11.308;2023-09-12T00:43:59;22.00;81.30
55135;DHT22;41031;44.750;11.308;2023-09-12T00:46:27;22.00;81.30
55135;DHT22;41031;44.750;11.308;2023-09-12T00:48:57;22.00;81.30
55135;DHT22;41031;44.750;11.308;2023-09-12T00:51:27;22.00;81.10
55135;DHT22;41031;44.750;11.308;2023-09-12T00:53:54;21.90;80.90
55135;DHT22;41031;44.750;11.308;2023-09-12T00:56:22;21.90;80.70
55135;DHT22;41031;44.750;11.308;2023-09-12T00:58:49;21.80;80.70
55135;DHT22;41031;44.750;11.308;2023-09-12T01:01:21;21.80;80.70
55135;DHT22;41031;44.750;11.308;2023-09-12T01:03:49;21.70;80.80
55135;DHT22;41031;44.750;11.308;2023-09-12T01:06:19;21.70;80.90
55135;DHT22;41031;44.750;11.308;2023-09-12T01:08:46;21.70;80.80
55135;DHT22;41031;44.750;11.308;2023-09-12T01:11:14;21.60;80.80
55135;DHT22;41031;44.750;11.308;2023-09-12T01:13:41;21.60;80.80
55135;DHT22;41031;44.750;11.308;2023-09-12T01:16:08;21.60;80.70
55135;DHT22;41031;44.750;11.308;2023-09-12T01:18:35;21.50;80.70
55135;DHT22;41031;44.750;11.308;2023-09-12T01:27:21;21.50;81.00
55135;DHT22;41031;44.750;11.308;2023-09-12T01:29:51;21.40;81.00
55135;DHT22;41031;44.750;11.308;2023-09-12T01:32:20;21.40;81.10
55135;DHT22;41031;44.750;11.308;2023-09-12T01:34:47;21.40;82.00
55135;DHT22;41031;44.750;11.308;2023-09-12T01:37:15;21.30;81.40
55135;DHT22;41031;44.750;11.308;2023-09-12T01:39:42;21.30;81.50
55135;DHT22;41031;44.750;11.308;2023-09-12T01:42:13;21.30;81.60
55135;DHT22;41031;44.750;11.308;2023-09-12T01:44:43;21.30;81.70
55135;DHT22;41031;44.750;11.308;2023-09-12T01:47:11;21.30;81.60
55135;DHT22;41031;44.750;11.308;2023-09-12T01:49:44;21.30;81.60
55135;DHT22;41031;44.750;11.308;2023-09-12T01:52:13;21.30;81.60
55135;DHT22;41031;44.750;11.308;2023-09-12T01:54:42;21.20;81.60
55135;DHT22;41031;44.750;11.308;2023-09-12T01:57:11;21.20;81.50
55135;DHT22;41031;44.750;11.308;2023-09-12T01:59:39;21.20;81.40
55135;DHT22;41031;44.750;11.308;2023-09-12T02:02:07;21.20;81.40
55135;DHT22;41031;44.750;11.308;2023-09-12T02:04:34;21.10;81.30
55135;DHT22;41031;44.750;11.308;2023-09-12T02:07:01;21.10;81.30
55135;DHT22;41031;44.750;11.308;2023-09-12T02:09:28;21.10;81.30
55135;DHT22;41031;44.750;11.308;2023-09-12T02:11:55;21.10;81.30
55135;DHT22;41031;44.750;11.308;2023-09-12T02:14:22;21.10;81.40
55135;DHT22;41031;44.750;11.308;2023-09-12T02:16:49;21.10;81.50
55135;DHT22;41031;44.750;11.308;2023-09-12T02:19:19;21.00;81.50
55135;DHT22;41031;44.750;11.308;2023-09-12T02:21:46;21.00;81.50
55135;DHT22;41031;44.750;11.308;2023-09-12T02:24:13;21.00;81.50
55135;DHT22;41031;44.750;11.308;2023-09-12T02:26:40;21.00;81.50
55135;DHT22;41031;44.750;11.308;2023-09-12T02:29:07;20.90;81.40
55135;DHT22;41031;44.750;11.308;2023-09-12T02:31:36;20.90;81.40
55135;DHT22;41031;44.750;11.308;2023-09-12T02:34:04;20.90;81.40
55135;DHT22;41031;44.750;11.308;2023-09-12T02:36:31;20.90;81.50
55135;DHT22;41031;44.750;11.308;2023-09-12T02:38:59;20.90;82.10
55135;DHT22;41031;44.750;11.308;2023-09-12T02:41:26;20.90;81.40
55135;DHT22;41031;44.750;11.308;2023-09-12T02:43:53;20.80;81.50
55135;DHT22;41031;44.750;11.308;2023-09-12T02:46:20;20.80;81.60
55135;DHT22;41031;44.750;11.308;2023-09-12T02:48:47;20.80;81.60
55135;DHT22;41031;44.750;11.308;2023-09-12T02:51:14;20.70;81.60
55135;DHT22;41031;44.750;11.308;2023-09-12T02:53:41;20.70;81.70
55135;DHT22;41031;44.750;11.308;2023-09-12T02:56:08;20.70;81.80
55135;DHT22;41031;44.750;11.308;2023-09-12T02:58:35;20.70;81.90
55135;DHT22;41031;44.750;11.308;2023-09-12T03:01:02;20.70;81.90
55135;DHT22;41031;44.750;11.308;2023-09-12T03:03:32;20.70;81.90
55135;DHT22;41031;44.750;11.308;2023-09-12T03:06:00;20.60;81.80
55135;DHT22;41031;44.750;11.308;2023-09-12T03:08:30;20.60;81.90
55135;DHT22;41031;44.750;11.308;2023-09-12T03:10:57;20.60;82.00
55135;DHT22;41031;44.750;11.308;2023-09-12T03:13:25;20.60;82.10
55135;DHT22;41031;44.750;11.308;2023-09-12T03:15:52;20.60;82.20
55135;DHT22;41031;44.750;11.308;2023-09-12T03:18:20;20.50;82.10
55135;DHT22;41031;44.750;11.308;2023-09-12T03:20:47;20.50;82.10
55135;DHT22;41031;44.750;11.308;2023-09-12T03:23:15;20.50;82.10
55135;DHT22;41031;44.750;11.308;2023-09-12T03:25:42;20.40;82.10
55135;DHT22;41031;44.750;11.308;2023-09-12T03:28:10;20.40;82.10
55135;DHT22;41031;44.750;11.308;2023-09-12T03:30:38;20.40;82.10
55135;DHT22;41031;44.750;11.308;2023-09-12T03:33:07;20.30;82.10
55135;DHT22;41031;44.750;11.308;2023-09-12T03:35:34;20.30;82.40
55135;DHT22;41031;44.750;11.308;2023-09-12T03:38:02;20.20;82.50
55135;DHT22;41031;44.750;11.308;2023-09-12T03:40:30;20.20;82.80
55135;DHT22;41031;44.750;11.308;2023-09-12T03:42:58;20.10;83.00
55135;DHT22;41031;44.750;11.308;2023-09-12T03:45:25;20.10;83.20
55135;DHT22;41031;44.750;11.308;2023-09-12T03:47:52;20.10;83.30
55135;DHT22;41031;44.750;11.308;2023-09-12T03:50:20;20.00;83.30
55135;DHT22;41031;44.750;11.308;2023-09-12T03:52:47;20.00;83.30
55135;DHT22;41031;44.750;11.308;2023-09-12T03:55:14;20.00;83.50
55135;DHT22;41031;44.750;11.308;2023-09-12T03:57:41;20.00;83.50
55135;DHT22;41031;44.750;11.308;2023-09-12T04:00:09;20.00;83.60
55135;DHT22;41031;44.750;11.308;2023-09-12T04:02:47;20.00;83.60
55135;DHT22;41031;44.750;11.308;2023-09-12T04:05:15;20.00;83.60
55135;DHT22;41031;44.750;11.308;2023-09-12T04:07:42;20.00;83.60
55135;DHT22;41031;44.750;11.308;2023-09-12T04:10:09;19.90;83.60
55135;DHT22;41031;44.750;11.308;2023-09-12T04:12:36;19.90;83.70
55135;DHT22;41031;44.750;11.308;2023-09-12T04:15:03;19.90;83.80
55135;DHT22;41031;44.750;11.308;2023-09-12T04:17:30;19.90;84.00
55135;DHT22;41031;44.750;11.308;2023-09-12T04:19:58;19.90;84.00
55135;DHT22;41031;44.750;11.308;2023-09-12T04:22:25;19.90;84.10
55135;DHT22;41031;44.750;11.308;2023-09-12T04:24:52;19.90;84.10
55135;DHT22;41031;44.750;11.308;2023-09-12T04:27:19;19.90;84.10
55135;DHT22;41031;44.750;11.308;2023-09-12T04:29:46;19.90;84.20
55135;DHT22;41031;44.750;11.308;2023-09-12T04:32:13;19.90;84.10
55135;DHT22;41031;44.750;11.308;2023-09-12T04:34:43;19.80;83.80
55135;DHT22;41031;44.750;11.308;2023-09-12T04:37:10;19.80;83.80
55135;DHT22;41031;44.750;11.308;2023-09-12T04:39:38;19.70;83.80
55135;DHT22;41031;44.750;11.308;2023-09-12T04:42:05;19.60;84.10
55135;DHT22;41031;44.750;11.308;2023-09-12T04:44:36;19.60;84.30
55135;DHT22;41031;44.750;11.308;2023-09-12T04:47:03;19.50;84.50
55135;DHT22;41031;44.750;11.308;2023-09-12T04:49:31;19.40;84.60
55135;DHT22;41031;44.750;11.308;2023-09-12T04:51:58;19.40;84.70
55135;DHT22;41031;44.750;11.308;2023-09-12T04:54:25;19.30;84.90
55135;DHT22;41031;44.750;11.308;2023-09-12T04:56:52;19.30;85.10
55135;DHT22;41031;44.750;11.308;2023-09-12T04:59:20;19.30;85.10
55135;DHT22;41031;44.750;11.308;2023-09-12T05:01:47;19.30;85.00
55135;DHT22;41031;44.750;11.308;2023-09-12T05:04:15;19.30;85.00
55135;DHT22;41031;44.750;11.308;2023-09-12T05:06:42;19.30;85.20
55135;DHT22;41031;44.750;11.308;2023-09-12T05:09:09;19.30;85.50
55135;DHT22;41031;44.750;11.308;2023-09-12T05:11:37;19.30;85.70
55135;DHT22;41031;44.750;11.308;2023-09-12T05:14:04;19.20;85.80
55135;DHT22;41031;44.750;11.308;2023-09-12T05:16:31;19.30;86.00
55135;DHT22;41031;44.750;11.308;2023-09-12T05:18:59;19.30;86.20
55135;DHT22;41031;44.750;11.308;2023-09-12T05:21:26;19.30;86.30
55135;DHT22;41031;44.750;11.308;2023-09-12T05:23:53;19.30;86.30
55135;DHT22;41031;44.750;11.308;2023-09-12T05:26:20;19.40;86.40
55135;DHT22;41031;44.750;11.308;2023-09-12T05:28:47;19.40;86.30
55135;DHT22;41031;44.750;11.308;2023-09-12T05:31:14;19.50;86.30
55135;DHT22;41031;44.750;11.308;2023-09-12T05:33:41;19.60;86.20
55135;DHT22;41031;44.750;11.308;2023-09-12T05:36:09;19.70;86.00
55135;DHT22;41031;44.750;11.308;2023-09-12T05:38:36;19.90;85.80
55135;DHT22;41031;44.750;11.308;2023-09-12T05:41:04;20.00;85.50
55135;DHT22;41031;44.750;11.308;2023-09-12T05:43:30;20.10;85.20
55135;DHT22;41031;44.750;11.308;2023-09-12T05:45:58;20.20;85.00
55135;DHT22;41031;44.750;11.308;2023-09-12T05:48:25;20.30;85.00
55135;DHT22;41031;44.750;11.308;2023-09-12T05:50:52;20.40;84.90
55135;DHT22;41031;44.750;11.308;2023-09-12T05:53:19;20.50;84.40
55135;DHT22;41031;44.750;11.308;2023-09-12T05:55:46;20.80;83.90
55135;DHT22;41031;44.750;11.308;2023-09-12T05:58:13;21.00;83.10
55135;DHT22;41031;44.750;11.308;2023-09-12T06:00:40;21.20;82.40
55135;DHT22;41031;44.750;11.308;2023-09-12T06:03:08;21.40;81.90
55135;DHT22;41031;44.750;11.308;2023-09-12T06:05:35;21.70;81.00
55135;DHT22;41031;44.750;11.308;2023-09-12T06:08:02;22.00;80.10
55135;DHT22;41031;44.750;11.308;2023-09-12T06:10:30;22.30;79.30
55135;DHT22;41031;44.750;11.308;2023-09-12T06:12:57;22.50;78.90
55135;DHT22;41031;44.750;11.308;2023-09-12T06:15:24;22.70;78.40
55135;DHT22;41031;44.750;11.308;2023-09-12T06:17:51;22.90;78.00
55135;DHT22;41031;44.750;11.308;2023-09-12T06:20:18;23.00;77.40
55135;DHT22;41031;44.750;11.308;2023-09-12T06:22:45;23.10;77.20
55135;DHT22;41031;44.750;11.308;2023-09-12T06:25:13;23.00;77.00
55135;DHT22;41031;44.750;11.308;2023-09-12T06:27:40;22.90;77.40
55135;DHT22;41031;44.750;11.308;2023-09-12T06:30:07;22.90;78.00
55135;DHT22;41031;44.750;11.308;2023-09-12T06:32:34;22.90;78.30
55135;DHT22;41031;44.750;11.308;2023-09-12T06:35:02;22.90;78.30
55135;DHT22;41031;44.750;11.308;2023-09-12T06:37:29;23.00;78.50
55135;DHT22;41031;44.750;11.308;2023-09-12T06:39:56;23.00;78.50
55135;DHT22;41031;44.750;11.308;2023-09-12T06:42:23;23.10;78.60
55135;DHT22;41031;44.750;11.308;2023-09-12T06:44:50;23.20;78.60
55135;DHT22;41031;44.750;11.308;2023-09-12T06:47:17;23.30;78.60
55135;DHT22;41031;44.750;11.308;2023-09-12T06:49:44;23.30;78.60
55135;DHT22;41031;44.750;11.308;2023-09-12T06:52:19;23.40;78.20
55135;DHT22;41031;44.750;11.308;2023-09-12T06:54:46;23.50;77.70
55135;DHT22;41031;44.750;11.308;2023-09-12T06:57:13;23.60;77.20
55135;DHT22;41031;44.750;11.308;2023-09-12T06:59:41;23.70;76.80
55135;DHT22;41031;44.750;11.308;2023-09-12T07:02:08;23.80;76.60
55135;DHT22;41031;44.750;11.308;2023-09-12T07:04:36;23.90;76.30
55135;DHT22;41031;44.750;11.308;2023-09-12T07:07:04;24.00;75.60
55135;DHT22;41031;44.750;11.308;2023-09-12T07:09:31;24.10;74.80
55135;DHT22;41031;44.750;11.308;2023-09-12T07:11:58;24.20;74.20
55135;DHT22;41031;44.750;11.308;2023-09-12T07:14:25;24.30;74.00
55135;DHT22;41031;44.750;11.308;2023-09-12T07:16:52;24.40;73.80
55135;DHT22;41031;44.750;11.308;2023-09-12T07:19:19;24.50;73.40
55135;DHT22;41031;44.750;11.308;2023-09-12T07:21:46;24.50;72.80
55135;DHT22;41031;44.750;11.308;2023-09-12T07:24:13;24.60;72.50
55135;DHT22;41031;44.750;11.308;2023-09-12T07:26:40;24.70;72.10
55135;DHT22;41031;44.750;11.308;2023-09-12T07:29:07;24.70;72.10
55135;DHT22;41031;44.750;11.308;2023-09-12T07:31:34;24.80;72.10
55135;DHT22;41031;44.750;11.308;2023-09-12T07:34:01;24.90;72.10
55135;DHT22;41031;44.750;11.308;2023-09-12T07:36:32;25.00;72.00
55135;DHT22;41031;44.750;11.308;2023-09-12T07:38:59;25.10;71.90
55135;DHT22;41031;44.750;11.308;2023-09-12T07:41:26;25.30;71.90
55135;DHT22;41031;44.750;11.308;2023-09-12T07:43:53;25.50;71.50
55135;DHT22;41031;44.750;11.308;2023-09-12T07:46:20;25.80;70.90
55135;DHT22;41031;44.750;11.308;2023-09-12T07:48:47;26.00;70.30
55135;DHT22;41031;44.750;11.308;2023-09-12T07:51:15;26.10;69.50
55135;DHT22;41031;44.750;11.308;2023-09-12T07:53:45;26.30;69.40
55135;DHT22;41031;44.750;11.308;2023-09-12T07:56:12;26.30;68.80
55135;DHT22;41031;44.750;11.308;2023-09-12T07:58:39;26.40;68.40
55135;DHT22;41031;44.750;11.308;2023-09-12T08:01:09;26.40;68.40
55135;DHT22;41031;44.750;11.308;2023-09-12T08:03:37;26.40;68.40
55135;DHT22;41031;44.750;11.308;2023-09-12T08:06:06;26.30;68.50
55135;DHT22;41031;44.750;11.308;2023-09-12T08:08:34;26.40;68.40
55135;DHT22;41031;44.750;11.308;2023-09-12T08:11:01;26.40;68.10
55135;DHT22;41031;44.750;11.308;2023-09-12T08:13:29;26.50;67.90
55135;DHT22;41031;44.750;11.308;2023-09-12T08:15:57;26.70;67.40
55135;DHT22;41031;44.750;11.308;2023-09-12T08:18:29;26.80;66.30
55135;DHT22;41031;44.750;11.308;2023-09-12T08:20:58;26.80;66.20
55135;DHT22;41031;44.750;11.308;2023-09-12T08:23:25;26.80;66.60
55135;DHT22;41031;44.750;11.308;2023-09-12T08:25:52;26.80;66.50
55135;DHT22;41031;44.750;11.308;2023-09-12T08:28:19;27.00;66.60
55135;DHT22;41031;44.750;11.308;2023-09-12T08:30:46;27.20;66.40
55135;DHT22;41031;44.750;11.308;2023-09-12T08:33:14;27.40;65.90
55135;DHT22;41031;44.750;11.308;2023-09-12T08:35:41;27.60;65.00
55135;DHT22;41031;44.750;11.308;2023-09-12T08:38:08;27.80;64.50
55135;DHT22;41031;44.750;11.308;2023-09-12T08:40:36;27.90;64.50
55135;DHT22;41031;44.750;11.308;2023-09-12T08:43:03;28.20;64.20
55135;DHT22;41031;44.750;11.308;2023-09-12T08:45:30;28.40;63.80
55135;DHT22;41031;44.750;11.308;2023-09-12T08:48:00;28.60;62.90
55135;DHT22;41031;44.750;11.308;2023-09-12T08:50:28;28.70;62.60
55135;DHT22;41031;44.750;11.308;2023-09-12T08:53:00;29.00;62.50
55135;DHT22;41031;44.750;11.308;2023-09-12T08:55:34;29.30;61.90
55135;DHT22;41031;44.750;11.308;2023-09-12T08:58:03;29.60;61.30
55135;DHT22;41031;44.750;11.308;2023-09-12T09:00:31;29.70;60.30
55135;DHT22;41031;44.750;11.308;2023-09-12T09:03:00;29.80;60.00
55135;DHT22;41031;44.750;11.308;2023-09-12T09:05:28;29.90;59.60
55135;DHT22;41031;44.750;11.308;2023-09-12T09:07:56;29.80;59.40
55135;DHT22;41031;44.750;11.308;2023-09-12T09:10:24;29.80;59.60
55135;DHT22;41031;44.750;11.308;2023-09-12T09:13:12;29.80;59.50
55135;DHT22;41031;44.750;11.308;2023-09-12T09:15:40;29.90;59.00
55135;DHT22;41031;44.750;11.308;2023-09-12T09:18:10;30.10;58.90
55135;DHT22;41031;44.750;11.308;2023-09-12T09:20:39;30.20;59.00
55135;DHT22;41031;44.750;11.308;2023-09-12T09:23:09;30.40;58.90
55135;DHT22;41031;44.750;11.308;2023-09-12T09:25:41;30.40;58.70
55135;DHT22;41031;44.750;11.308;2023-09-12T09:28:19;30.50;58.50
55135;DHT22;41031;44.750;11.308;2023-09-12T09:30:48;30.60;58.10
55135;DHT22;41031;44.750;11.308;2023-09-12T09:33:18;30.70;57.50
55135;DHT22;41031;44.750;11.308;2023-09-12T09:35:47;30.90;57.50
55135;DHT22;41031;44.750;11.308;2023-09-12T09:38:19;31.00;56.40
55135;DHT22;41031;44.750;11.308;2023-09-12T09:40:47;31.00;55.80
55135;DHT22;41031;44.750;11.308;2023-09-12T09:43:19;31.00;55.80
55135;DHT22;41031;44.750;11.308;2023-09-12T09:45:47;31.00;55.70
55135;DHT22;41031;44.750;11.308;2023-09-12T09:50:46;31.10;54.90
55135;DHT22;41031;44.750;11.308;2023-09-12T09:53:13;31.20;54.90
55135;DHT22;41031;44.750;11.308;2023-09-12T09:55:40;31.30;54.60
55135;DHT22;41031;44.750;11.308;2023-09-12T09:58:14;31.30;54.50
55135;DHT22;41031;44.750;11.308;2023-09-12T10:00:44;31.50;54.40
55135;DHT22;41031;44.750;11.308;2023-09-12T10:03:12;31.60;54.40
55135;DHT22;41031;44.750;11.308;2023-09-12T10:05:42;31.70;54.30
55135;DHT22;41031;44.750;11.308;2023-09-12T10:08:11;31.80;53.90
55135;DHT22;41031;44.750;11.308;2023-09-12T10:10:44;31.90;53.90
55135;DHT22;41031;44.750;11.308;2023-09-12T10:13:12;31.90;54.10
55135;DHT22;41031;44.750;11.308;2023-09-12T10:15:42;32.00;53.60
55135;DHT22;41031;44.750;11.308;2023-09-12T10:18:15;32.10;52.80
55135;DHT22;41031;44.750;11.308;2023-09-12T10:21:04;32.10;52.80
55135;DHT22;41031;44.750;11.308;2023-09-12T10:23:44;32.20;52.20
55135;DHT22;41031;44.750;11.308;2023-09-12T10:26:13;32.20;51.50
55135;DHT22;41031;44.750;11.308;2023-09-12T10:28:41;32.20;51.60
55135;DHT22;41031;44.750;11.308;2023-09-12T10:31:11;32.20;51.90
55135;DHT22;41031;44.750;11.308;2023-09-12T10:33:38;32.10;51.50
55135;DHT22;41031;44.750;11.308;2023-09-12T10:36:08;32.10;51.30
55135;DHT22;41031;44.750;11.308;2023-09-12T10:38:44;32.10;51.50
55135;DHT22;41031;44.750;11.308;2023-09-12T10:41:12;32.20;50.90
55135;DHT22;41031;44.750;11.308;2023-09-12T10:43:42;32.30;50.90
55135;DHT22;41031;44.750;11.308;2023-09-12T10:46:10;32.40;50.20
55135;DHT22;41031;44.750;11.308;2023-09-12T10:48:37;32.50;50.00
55135;DHT22;41031;44.750;11.308;2023-09-12T10:51:08;32.50;49.90
55135;DHT22;41031;44.750;11.308;2023-09-12T10:53:36;32.60;49.70
55135;DHT22;41031;44.750;11.308;2023-09-12T11:01:34;32.80;50.10
55135;DHT22;41031;44.750;11.308;2023-09-12T11:06:47;32.90;49.90
55135;DHT22;41031;44.750;11.308;2023-09-12T11:09:18;33.00;49.30
55135;DHT22;41031;44.750;11.308;2023-09-12T11:11:47;33.10;49.60
55135;DHT22;41031;44.750;11.308;2023-09-12T11:14:15;33.20;49.20
55135;DHT22;41031;44.750;11.308;2023-09-12T11:16:44;33.30;49.50
55135;DHT22;41031;44.750;11.308;2023-09-12T11:19:52;33.40;49.80
55135;DHT22;41031;44.750;11.308;2023-09-12T11:24:51;33.50;49.10
55135;DHT22;41031;44.750;11.308;2023-09-12T11:27:18;33.60;48.50
55135;DHT22;41031;44.750;11.308;2023-09-12T11:29:46;33.70;47.70
55135;DHT22;41031;44.750;11.308;2023-09-12T11:32:26;33.70;47.70
55135;DHT22;41031;44.750;11.308;2023-09-12T11:34:54;33.80;47.80
55135;DHT22;41031;44.750;11.308;2023-09-12T11:37:26;33.90;47.30
55135;DHT22;41031;44.750;11.308;2023-09-12T11:39:54;33.90;46.60
55135;DHT22;41031;44.750;11.308;2023-09-12T11:42:21;33.90;47.10
55135;DHT22;41031;44.750;11.308;2023-09-12T11:44:54;34.00;46.90
55135;DHT22;41031;44.750;11.308;2023-09-12T11:47:23;34.00;47.40
55135;DHT22;41031;44.750;11.308;2023-09-12T11:49:51;34.10;46.80
55135;DHT22;41031;44.750;11.308;2023-09-12T11:52:18;34.10;45.90
55135;DHT22;41031;44.750;11.308;2023-09-12T11:54:46;34.10;45.80
55135;DHT22;41031;44.750;11.308;2023-09-12T11:57:15;34.10;45.80
55135;DHT22;41031;44.750;11.308;2023-09-12T11:59:44;34.10;46.60
55135;DHT22;41031;44.750;11.308;2023-09-12T12:02:14;34.10;46.80
55135;DHT22;41031;44.750;11.308;2023-09-12T12:04:41;34.20;46.80
55135;DHT22;41031;44.750;11.308;2023-09-12T12:07:10;34.20;45.70
55135;DHT22;41031;44.750;11.308;2023-09-12T12:09:38;34.20;45.80
55135;DHT22;41031;44.750;11.308;2023-09-12T12:12:12;34.10;45.80
55135;DHT22;41031;44.750;11.308;2023-09-12T12:14:40;34.20;46.40
55135;DHT22;41031;44.750;11.308;2023-09-12T12:17:11;34.20;45.80
55135;DHT22;41031;44.750;11.308;2023-09-12T12:19:39;34.10;45.20
55135;DHT22;41031;44.750;11.308;2023-09-12T12:22:06;34.10;46.30
55135;DHT22;41031;44.750;11.308;2023-09-12T12:24:40;34.10;46.50
55135;DHT22;41031;44.750;11.308;2023-09-12T12:27:07;34.10;45.50
55135;DHT22;41031;44.750;11.308;2023-09-12T12:29:37;34.10;45.70
55135;DHT22;41031;44.750;11.308;2023-09-12T12:32:06;34.10;46.30
55135;DHT22;41031;44.750;11.308;2023-09-12T12:34:37;34.10;46.20
55135;DHT22;41031;44.750;11.308;2023-09-12T12:37:29;34.00;45.80
55135;DHT22;41031;44.750;11.308;2023-09-12T12:40:00;34.00;46.20
55135;DHT22;41031;44.750;11.308;2023-09-12T12:42:37;33.90;45.60
55135;DHT22;41031;44.750;11.308;2023-09-12T12:45:23;33.80;45.80
55135;DHT22;41031;44.750;11.308;2023-09-12T12:47:57;33.90;45.90
55135;DHT22;41031;44.750;11.308;2023-09-12T12:50:25;34.00;45.40
55135;DHT22;41031;44.750;11.308;2023-09-12T12:52:52;34.00;44.90
55135;DHT22;41031;44.750;11.308;2023-09-12T12:55:20;34.00;45.00
55135;DHT22;41031;44.750;11.308;2023-09-12T12:57:48;34.00;44.90
55135;DHT22;41031;44.750;11.308;2023-09-12T13:00:17;34.00;44.30
55135;DHT22;41031;44.750;11.308;2023-09-12T13:02:45;33.90;44.60
55135;DHT22;41031;44.750;11.308;2023-09-12T13:05:27;33.90;44.90
55135;DHT22;41031;44.750;11.308;2023-09-12T13:07:55;33.90;44.50
55135;DHT22;41031;44.750;11.308;2023-09-12T13:10:22;33.90;44.30
55135;DHT22;41031;44.750;11.308;2023-09-12T13:12:50;34.00;44.30
55135;DHT22;41031;44.750;11.308;2023-09-12T13:15:17;34.00;43.40
55135;DHT22;41031;44.750;11.308;2023-09-12T13:17:45;34.00;42.80
55135;DHT22;41031;44.750;11.308;2023-09-12T13:20:12;33.80;42.80
55135;DHT22;41031;44.750;11.308;2023-09-12T13:22:40;33.70;43.40
55135;DHT22;41031;44.750;11.308;2023-09-12T13:25:07;33.60;44.30
55135;DHT22;41031;44.750;11.308;2023-09-12T13:27:34;33.60;44.70
55135;DHT22;41031;44.750;11.308;2023-09-12T13:30:02;33.70;44.80
55135;DHT22;41031;44.750;11.308;2023-09-12T13:32:31;33.70;44.60
55135;DHT22;41031;44.750;11.308;2023-09-12T13:34:59;33.70;44.50
55135;DHT22;41031;44.750;11.308;2023-09-12T13:37:26;33.70;44.20
55135;DHT22;41031;44.750;11.308;2023-09-12T13:39:54;33.60;43.90
55135;DHT22;41031;44.750;11.308;2023-09-12T13:42:21;33.50;44.20
55135;DHT22;41031;44.750;11.308;2023-09-12T13:44:48;33.50;44.40
55135;DHT22;41031;44.750;11.308;2023-09-12T13:47:16;33.50;44.90
55135;DHT22;41031;44.750;11.308;2023-09-12T13:49:50;33.50;44.90
55135;DHT22;41031;44.750;11.308;2023-09-12T13:52:21;33.50;44.70
55135;DHT22;41031;44.750;11.308;2023-09-12T13:54:48;33.50;44.80
55135;DHT22;41031;44.750;11.308;2023-09-12T13:57:16;33.50;45.00
55135;DHT22;41031;44.750;11.308;2023-09-12T13:59:44;33.40;45.10
55135;DHT22;41031;44.750;11.308;2023-09-12T14:02:13;33.30;44.50
55135;DHT22;41031;44.750;11.308;2023-09-12T14:04:42;33.30;44.20
55135;DHT22;41031;44.750;11.308;2023-09-12T14:07:10;33.20;44.70
55135;DHT22;41031;44.750;11.308;2023-09-12T14:09:39;33.20;44.70
55135;DHT22;41031;44.750;11.308;2023-09-12T14:12:06;33.20;44.10
55135;DHT22;41031;44.750;11.308;2023-09-12T14:14:50;33.10;44.40
55135;DHT22;41031;44.750;11.308;2023-09-12T14:17:31;33.10;44.90
55135;DHT22;41031;44.750;11.308;2023-09-12T14:19:59;33.10;44.80
55135;DHT22;41031;44.750;11.308;2023-09-12T14:22:26;33.10;44.40
55135;DHT22;41031;44.750;11.308;2023-09-12T14:24:56;33.20;44.50
55135;DHT22;41031;44.750;11.308;2023-09-12T14:27:24;33.10;44.80
55135;DHT22;41031;44.750;11.308;2023-09-12T14:29:53;33.20;43.90
55135;DHT22;41031;44.750;11.308;2023-09-12T14:32:20;33.10;44.10
55135;DHT22;41031;44.750;11.308;2023-09-12T14:34:47;33.10;44.60
55135;DHT22;41031;44.750;11.308;2023-09-12T14:37:14;33.10;44.10
55135;DHT22;41031;44.750;11.308;2023-09-12T14:39:41;33.00;44.50
55135;DHT22;41031;44.750;11.308;2023-09-12T14:42:09;33.00;43.70
55135;DHT22;41031;44.750;11.308;2023-09-12T14:44:36;33.00;44.10
55135;DHT22;41031;44.750;11.308;2023-09-12T14:47:04;33.00;44.50
55135;DHT22;41031;44.750;11.308;2023-09-12T14:49:31;32.90;44.30
55135;DHT22;41031;44.750;11.308;2023-09-12T14:52:09;32.90;43.80
55135;DHT22;41031;44.750;11.308;2023-09-12T14:54:49;32.80;43.80
55135;DHT22;41031;44.750;11.308;2023-09-12T14:57:16;32.80;43.70
55135;DHT22;41031;44.750;11.308;2023-09-12T14:59:43;32.80;44.50
55135;DHT22;41031;44.750;11.308;2023-09-12T15:02:10;32.80;45.40
55135;DHT22;41031;44.750;11.308;2023-09-12T15:04:37;32.80;44.40
55135;DHT22;41031;44.750;11.308;2023-09-12T15:07:05;32.70;43.90
55135;DHT22;41031;44.750;11.308;2023-09-12T15:09:33;32.70;44.10
55135;DHT22;41031;44.750;11.308;2023-09-12T15:12:00;32.60;44.50
55135;DHT22;41031;44.750;11.308;2023-09-12T15:14:27;32.60;44.00
55135;DHT22;41031;44.750;11.308;2023-09-12T15:16:55;32.60;44.00
55135;DHT22;41031;44.750;11.308;2023-09-12T15:23:36;32.50;43.70
55135;DHT22;41031;44.750;11.308;2023-09-12T15:26:03;32.40;43.70
55135;DHT22;41031;44.750;11.308;2023-09-12T15:28:30;32.40;43.70
55135;DHT22;41031;44.750;11.308;2023-09-12T15:30:57;32.30;44.10
55135;DHT22;41031;44.750;11.308;2023-09-12T15:33:27;32.20;43.70
55135;DHT22;41031;44.750;11.308;2023-09-12T15:35:54;32.20;44.10
55135;DHT22;41031;44.750;11.308;2023-09-12T15:38:21;32.20;44.20
55135;DHT22;41031;44.750;11.308;2023-09-12T15:40:48;32.10;44.00
55135;DHT22;41031;44.750;11.308;2023-09-12T15:43:15;32.10;44.20
55135;DHT22;41031;44.750;11.308;2023-09-12T15:45:50;32.10;44.20
55135;DHT22;41031;44.750;11.308;2023-09-12T15:48:18;32.00;44.10